THY971 LCEN-LTFM
Flight info
| Callsign | THY971 |
|---|---|
| Flight time | 1h 19m |
| Altitude | 36000 |
| Route | GIRNE DCT DOREN UA28 MUT UL619 OSVEL UB545 KFK UM855 SISPI |
| Aircraft | B739/M-SDE2E3FGHIRWXY/LB1 |
Departure
| Time | 2026-05-04 15:23 |
|---|---|
| Airport | Ercan International Airport (LCEN) |
Arrival
| Time | 2026-05-04 16:42 |
|---|---|
| Airport | İstanbul Airport (LTFM) |
| Time | Latitude | Longitude | Altitude | Speed | Heading |
|---|---|---|---|---|---|
| 2026-05-04 14:50 | 35.15692 | 33.50352 | 402 ft | 0 kts | 20° |
| 2026-05-04 15:14 | 35.15685 | 33.50349 | 395 ft | 4 kts | 24° |
| 2026-05-04 15:14 | 35.15663 | 33.50336 | 398 ft | 2 kts | 20° |
| 2026-05-04 15:14 | 35.15648 | 33.50325 | 397 ft | 4 kts | 88° |
| 2026-05-04 15:15 | 35.15653 | 33.50296 | 395 ft | 4 kts | 115° |
| 2026-05-04 15:15 | 35.15664 | 33.50266 | 398 ft | 4 kts | 115° |
| 2026-05-04 15:15 | 35.15668 | 33.50256 | 397 ft | 0 kts | 115° |
| 2026-05-04 15:18 | 35.15636 | 33.50285 | 394 ft | 14 kts | 177° |
| 2026-05-04 15:18 | 35.15516 | 33.50250 | 395 ft | 19 kts | 166° |
| 2026-05-04 15:19 | 35.15404 | 33.50517 | 395 ft | 17 kts | 112° |
| 2026-05-04 15:19 | 35.15360 | 33.50651 | 401 ft | 17 kts | 112° |
| 2026-05-04 15:19 | 35.15275 | 33.50905 | 403 ft | 15 kts | 112° |
| 2026-05-04 15:20 | 35.15237 | 33.51025 | 404 ft | 15 kts | 111° |
| 2026-05-04 15:20 | 35.15199 | 33.51140 | 408 ft | 14 kts | 112° |
| 2026-05-04 15:20 | 35.15162 | 33.51249 | 404 ft | 14 kts | 112° |
| 2026-05-04 15:20 | 35.15127 | 33.51353 | 409 ft | 13 kts | 112° |
| 2026-05-04 15:21 | 35.15106 | 33.51457 | 409 ft | 13 kts | 77° |
| 2026-05-04 15:21 | 35.15079 | 33.51521 | 408 ft | 8 kts | 221° |
| 2026-05-04 15:21 | 35.15083 | 33.51488 | 408 ft | 0 kts | 292° |
| 2026-05-04 15:22 | 35.15083 | 33.51487 | 408 ft | 3 kts | 292° |
| 2026-05-04 15:22 | 35.15174 | 33.51211 | 408 ft | 69 kts | 292° |
| 2026-05-04 15:22 | 35.15811 | 33.49290 | 620 ft | 152 kts | 291° |
| 2026-05-04 15:23 | 35.16277 | 33.48091 | 1158 ft | 161 kts | 299° |
| 2026-05-04 15:23 | 35.17172 | 33.47255 | 1739 ft | 176 kts | 338° |
| 2026-05-04 15:23 | 35.18350 | 33.46934 | 2434 ft | 174 kts | 345° |
| 2026-05-04 15:23 | 35.19632 | 33.47147 | 2648 ft | 202 kts | 16° |
| 2026-05-04 15:24 | 35.21689 | 33.49770 | 3229 ft | 237 kts | 70° |
| 2026-05-04 15:24 | 35.21137 | 33.53859 | 3485 ft | 271 kts | 126° |
| 2026-05-04 15:25 | 35.20134 | 33.55943 | 3615 ft | 294 kts | 121° |
| 2026-05-04 15:25 | 35.19169 | 33.58154 | 4324 ft | 292 kts | 120° |
| 2026-05-04 15:25 | 35.18491 | 33.60493 | 4969 ft | 297 kts | 96° |
| 2026-05-04 15:26 | 35.19999 | 33.64978 | 6066 ft | 293 kts | 35° |
| 2026-05-04 15:26 | 35.21669 | 33.66345 | 6794 ft | 286 kts | 23° |
| 2026-05-04 15:26 | 35.25412 | 33.67353 | 8037 ft | 273 kts | 346° |
| 2026-05-04 15:27 | 35.27201 | 33.66720 | 8696 ft | 267 kts | 329° |
| 2026-05-04 15:27 | 35.30194 | 33.64074 | 9892 ft | 268 kts | 305° |
| 2026-05-04 15:28 | 35.32456 | 33.60280 | 10655 ft | 292 kts | 304° |
| 2026-05-04 15:28 | 35.33725 | 33.58232 | 10820 ft | 312 kts | 304° |
| 2026-05-04 15:28 | 35.36344 | 33.53614 | 11081 ft | 348 kts | 302° |
| 2026-05-04 15:29 | 35.37738 | 33.51127 | 11328 ft | 360 kts | 302° |
| 2026-05-04 15:30 | 35.44222 | 33.41369 | 13323 ft | 383 kts | 328° |
| 2026-05-04 15:30 | 35.52136 | 33.38796 | 14877 ft | 402 kts | 346° |
| 2026-05-04 15:31 | 35.57679 | 33.37640 | 15937 ft | 406 kts | 345° |
| 2026-05-04 15:31 | 35.60474 | 33.37012 | 16450 ft | 408 kts | 345° |
| 2026-05-04 15:32 | 35.68889 | 33.34937 | 17939 ft | 414 kts | 342° |
| 2026-05-04 15:32 | 35.74548 | 33.33370 | 18789 ft | 420 kts | 342° |
| 2026-05-04 15:33 | 35.80289 | 33.31799 | 19594 ft | 425 kts | 342° |
| 2026-05-04 15:34 | 35.89050 | 33.29426 | 20774 ft | 434 kts | 342° |
| 2026-05-04 15:34 | 35.92011 | 33.28642 | 21171 ft | 437 kts | 345° |
| 2026-05-04 15:34 | 35.98186 | 33.28399 | 21954 ft | 451 kts | 358° |
| 2026-05-04 15:35 | 36.04492 | 33.28740 | 22627 ft | 455 kts | 355° |
| 2026-05-04 15:35 | 36.07662 | 33.28713 | 22975 ft | 456 kts | 353° |
| 2026-05-04 15:35 | 36.10799 | 33.28612 | 23321 ft | 458 kts | 353° |
| 2026-05-04 15:36 | 36.17206 | 33.28475 | 23951 ft | 462 kts | 355° |
| 2026-05-04 15:36 | 36.20464 | 33.28492 | 24266 ft | 464 kts | 356° |
| 2026-05-04 15:36 | 36.23660 | 33.28537 | 24527 ft | 467 kts | 356° |
| 2026-05-04 15:37 | 36.26914 | 33.28585 | 24746 ft | 469 kts | 356° |
| 2026-05-04 15:37 | 36.30182 | 33.28624 | 25028 ft | 470 kts | 356° |
| 2026-05-04 15:37 | 36.33463 | 33.28658 | 25294 ft | 472 kts | 356° |
| 2026-05-04 15:37 | 36.36750 | 33.28688 | 25632 ft | 472 kts | 356° |
| 2026-05-04 15:38 | 36.40031 | 33.28717 | 26009 ft | 471 kts | 356° |
| 2026-05-04 15:38 | 36.43302 | 33.28750 | 26418 ft | 469 kts | 356° |
| 2026-05-04 15:38 | 36.46566 | 33.28784 | 26765 ft | 469 kts | 356° |
| 2026-05-04 15:38 | 36.49829 | 33.28819 | 27139 ft | 469 kts | 356° |
| 2026-05-04 15:39 | 36.53087 | 33.28854 | 27546 ft | 468 kts | 356° |
| 2026-05-04 15:39 | 36.56335 | 33.28888 | 28061 ft | 464 kts | 356° |
| 2026-05-04 15:39 | 36.62721 | 33.28957 | 29154 ft | 458 kts | 356° |
| 2026-05-04 15:40 | 36.65914 | 33.28989 | 29464 ft | 460 kts | 356° |
| 2026-05-04 15:40 | 36.69114 | 33.29020 | 29820 ft | 460 kts | 356° |
| 2026-05-04 15:40 | 36.72311 | 33.29053 | 30150 ft | 459 kts | 356° |
| 2026-05-04 15:40 | 36.75507 | 33.29087 | 30471 ft | 460 kts | 356° |
| 2026-05-04 15:41 | 36.78703 | 33.29120 | 30796 ft | 459 kts | 356° |
| 2026-05-04 15:41 | 36.81894 | 33.29127 | 31086 ft | 458 kts | 353° |
| 2026-05-04 15:41 | 36.84993 | 33.28418 | 31273 ft | 451 kts | 336° |
| 2026-05-04 15:41 | 36.87790 | 33.26695 | 31530 ft | 446 kts | 324° |
| 2026-05-04 15:42 | 36.90161 | 33.24253 | 31776 ft | 442 kts | 311° |
| 2026-05-04 15:42 | 36.92253 | 33.21424 | 32019 ft | 443 kts | 310° |
| 2026-05-04 15:42 | 36.94308 | 33.18562 | 32233 ft | 444 kts | 310° |
| 2026-05-04 15:42 | 36.96366 | 33.15679 | 32495 ft | 445 kts | 310° |
| 2026-05-04 15:43 | 36.98428 | 33.12803 | 32800 ft | 443 kts | 311° |
| 2026-05-04 15:43 | 37.00494 | 33.09942 | 33091 ft | 443 kts | 311° |
| 2026-05-04 15:43 | 37.02572 | 33.07082 | 33330 ft | 445 kts | 311° |
| 2026-05-04 15:43 | 37.04657 | 33.04224 | 33598 ft | 444 kts | 311° |
| 2026-05-04 15:44 | 37.06743 | 33.01370 | 33837 ft | 444 kts | 311° |
| 2026-05-04 15:44 | 37.10935 | 32.95635 | 33856 ft | 446 kts | 311° |
| 2026-05-04 15:45 | 37.15116 | 32.89907 | 33859 ft | 444 kts | 311° |
| 2026-05-04 15:45 | 37.19265 | 32.84210 | 33866 ft | 441 kts | 312° |
| 2026-05-04 15:46 | 37.23391 | 32.78534 | 33859 ft | 439 kts | 311° |
| 2026-05-04 15:46 | 37.27500 | 32.72872 | 33858 ft | 438 kts | 311° |
| 2026-05-04 15:47 | 37.31598 | 32.67215 | 33860 ft | 437 kts | 311° |
| 2026-05-04 15:47 | 37.35688 | 32.61558 | 33858 ft | 437 kts | 312° |
| 2026-05-04 15:48 | 37.39768 | 32.55906 | 33862 ft | 436 kts | 312° |
| 2026-05-04 15:48 | 37.45869 | 32.47435 | 33862 ft | 435 kts | 312° |
| 2026-05-04 15:49 | 37.49932 | 32.41780 | 33859 ft | 435 kts | 312° |
| 2026-05-04 15:49 | 37.53992 | 32.36121 | 33873 ft | 435 kts | 312° |
| 2026-05-04 15:50 | 37.58051 | 32.30453 | 33876 ft | 435 kts | 312° |
| 2026-05-04 15:50 | 37.62107 | 32.24781 | 33889 ft | 435 kts | 312° |
| 2026-05-04 15:51 | 37.65473 | 32.20064 | 33883 ft | 436 kts | 312° |
| 2026-05-04 15:51 | 37.69526 | 32.14377 | 33908 ft | 436 kts | 312° |
| 2026-05-04 15:52 | 37.73579 | 32.08678 | 33923 ft | 436 kts | 312° |
| 2026-05-04 15:52 | 37.77630 | 32.02973 | 33927 ft | 436 kts | 313° |
| 2026-05-04 15:53 | 37.81684 | 31.97255 | 33928 ft | 437 kts | 313° |
| 2026-05-04 15:53 | 37.85738 | 31.91525 | 33924 ft | 437 kts | 313° |
| 2026-05-04 15:54 | 37.89788 | 31.85790 | 33923 ft | 437 kts | 313° |
| 2026-05-04 15:54 | 37.93835 | 31.80049 | 33926 ft | 437 kts | 313° |
| 2026-05-04 15:55 | 37.97874 | 31.74309 | 33918 ft | 436 kts | 313° |
| 2026-05-04 15:55 | 38.01904 | 31.68572 | 33925 ft | 435 kts | 313° |
| 2026-05-04 15:56 | 38.05928 | 31.62834 | 33938 ft | 435 kts | 313° |
| 2026-05-04 15:56 | 38.09940 | 31.57101 | 33941 ft | 435 kts | 313° |
| 2026-05-04 15:57 | 38.13961 | 31.51349 | 33936 ft | 436 kts | 313° |
| 2026-05-04 15:57 | 38.17950 | 31.45627 | 33945 ft | 434 kts | 313° |
| 2026-05-04 15:58 | 38.21949 | 31.39882 | 33950 ft | 434 kts | 313° |
| 2026-05-04 15:58 | 38.25948 | 31.34126 | 33943 ft | 434 kts | 313° |
| 2026-05-04 15:59 | 38.29943 | 31.28365 | 33958 ft | 434 kts | 313° |
| 2026-05-04 15:59 | 38.33934 | 31.22599 | 33950 ft | 433 kts | 313° |
| 2026-05-04 16:00 | 38.37913 | 31.16841 | 33956 ft | 432 kts | 313° |
| 2026-05-04 16:00 | 38.41873 | 31.11098 | 33961 ft | 431 kts | 313° |
| 2026-05-04 16:01 | 38.45833 | 31.05346 | 33985 ft | 431 kts | 313° |
| 2026-05-04 16:01 | 38.49703 | 30.99510 | 33980 ft | 432 kts | 310° |
| 2026-05-04 16:02 | 38.53316 | 30.93374 | 33975 ft | 432 kts | 309° |
| 2026-05-04 16:03 | 38.58705 | 30.84125 | 33987 ft | 433 kts | 309° |
| 2026-05-04 16:03 | 38.62321 | 30.77974 | 33994 ft | 433 kts | 309° |
| 2026-05-04 16:04 | 38.65942 | 30.71813 | 33993 ft | 433 kts | 309° |
| 2026-05-04 16:04 | 38.71583 | 30.62814 | 33991 ft | 430 kts | 319° |
| 2026-05-04 16:05 | 38.76411 | 30.58353 | 33994 ft | 428 kts | 333° |
| 2026-05-04 16:06 | 38.84394 | 30.53192 | 34000 ft | 429 kts | 334° |
| 2026-05-04 16:07 | 38.95036 | 30.46249 | 34006 ft | 429 kts | 333° |
| 2026-05-04 16:08 | 39.05667 | 30.39233 | 33984 ft | 430 kts | 334° |
| 2026-05-04 16:09 | 39.18969 | 30.30423 | 34012 ft | 431 kts | 334° |
| 2026-05-04 16:10 | 39.29630 | 30.23335 | 34018 ft | 431 kts | 334° |
| 2026-05-04 16:11 | 39.40277 | 30.16231 | 34015 ft | 430 kts | 334° |
| 2026-05-04 16:12 | 39.56550 | 30.06510 | 34021 ft | 429 kts | 339° |
| 2026-05-04 16:13 | 39.61646 | 30.02544 | 33941 ft | 431 kts | 320° |
| 2026-05-04 16:13 | 39.65800 | 29.96998 | 32529 ft | 430 kts | 317° |
| 2026-05-04 16:14 | 39.69814 | 29.91138 | 30355 ft | 445 kts | 316° |
| 2026-05-04 16:14 | 39.73918 | 29.84895 | 27898 ft | 456 kts | 316° |
| 2026-05-04 16:15 | 39.80131 | 29.75518 | 25327 ft | 457 kts | 315° |
| 2026-05-04 16:16 | 39.84354 | 29.69249 | 25083 ft | 462 kts | 316° |
| 2026-05-04 16:16 | 39.90672 | 29.59885 | 25040 ft | 459 kts | 316° |
| 2026-05-04 16:17 | 39.94899 | 29.53624 | 25027 ft | 461 kts | 316° |
| 2026-05-04 16:18 | 40.01259 | 29.44213 | 25038 ft | 462 kts | 316° |
| 2026-05-04 16:18 | 40.03390 | 29.41075 | 25046 ft | 461 kts | 317° |
| 2026-05-04 16:19 | 40.10984 | 29.35421 | 24996 ft | 387 kts | 347° |
| 2026-05-04 16:19 | 40.15929 | 29.33432 | 24595 ft | 360 kts | 346° |
| 2026-05-04 16:20 | 40.23095 | 29.30382 | 21893 ft | 359 kts | 345° |
| 2026-05-04 16:20 | 40.27768 | 29.28375 | 20410 ft | 349 kts | 345° |
| 2026-05-04 16:21 | 40.34582 | 29.25452 | 18232 ft | 339 kts | 345° |
| 2026-05-04 16:22 | 40.38989 | 29.23557 | 16999 ft | 323 kts | 345° |
| 2026-05-04 16:22 | 40.45365 | 29.20817 | 15970 ft | 327 kts | 345° |
| 2026-05-04 16:23 | 40.51693 | 29.18088 | 14484 ft | 311 kts | 345° |
| 2026-05-04 16:24 | 40.59806 | 29.14583 | 11583 ft | 303 kts | 345° |
| 2026-05-04 16:25 | 40.63760 | 29.12872 | 10577 ft | 288 kts | 344° |
| 2026-05-04 16:26 | 40.70677 | 29.09869 | 9482 ft | 256 kts | 344° |
| 2026-05-04 16:26 | 40.75710 | 29.07687 | 8329 ft | 249 kts | 343° |
| 2026-05-04 16:27 | 40.78969 | 29.06268 | 7400 ft | 242 kts | 343° |
| 2026-05-04 16:28 | 40.83587 | 29.04257 | 6589 ft | 215 kts | 342° |
| 2026-05-04 16:28 | 40.87640 | 29.02489 | 6094 ft | 206 kts | 342° |
| 2026-05-04 16:29 | 40.90924 | 28.97112 | 5900 ft | 213 kts | 274° |
| 2026-05-04 16:30 | 40.90558 | 28.91720 | 5188 ft | 186 kts | 274° |
| 2026-05-04 16:31 | 40.90337 | 28.88300 | 4369 ft | 187 kts | 273° |
| 2026-05-04 16:31 | 40.90002 | 28.83140 | 3213 ft | 188 kts | 271° |
| 2026-05-04 16:32 | 40.89695 | 28.77926 | 3018 ft | 186 kts | 282° |
| 2026-05-04 16:33 | 40.91253 | 28.75746 | 3035 ft | 170 kts | 343° |
| 2026-05-04 16:33 | 40.93475 | 28.74628 | 3022 ft | 168 kts | 342° |
| 2026-05-04 16:34 | 40.95642 | 28.73538 | 3030 ft | 168 kts | 342° |
| 2026-05-04 16:34 | 40.96739 | 28.72987 | 3030 ft | 170 kts | 342° |
| 2026-05-04 16:35 | 41.00115 | 28.71566 | 3026 ft | 169 kts | 357° |
| 2026-05-04 16:35 | 41.03658 | 28.71291 | 3016 ft | 166 kts | 359° |
| 2026-05-04 16:36 | 41.04806 | 28.71251 | 3020 ft | 165 kts | 359° |
| 2026-05-04 16:36 | 41.07111 | 28.71190 | 3026 ft | 166 kts | 359° |
| 2026-05-04 16:37 | 41.09031 | 28.71144 | 3035 ft | 167 kts | 359° |
| 2026-05-04 16:37 | 41.10196 | 28.71117 | 3029 ft | 168 kts | 359° |
| 2026-05-04 16:37 | 41.12388 | 28.71066 | 3029 ft | 150 kts | 359° |
| 2026-05-04 16:38 | 41.14490 | 28.71017 | 2762 ft | 150 kts | 360° |
| 2026-05-04 16:39 | 41.17529 | 28.70948 | 2213 ft | 138 kts | 359° |
| 2026-05-04 16:39 | 41.19449 | 28.70902 | 1795 ft | 140 kts | 360° |
| 2026-05-04 16:40 | 41.21405 | 28.70871 | 1452 ft | 141 kts | 0° |
| 2026-05-04 16:40 | 41.23359 | 28.70804 | 1016 ft | 143 kts | 359° |
| 2026-05-04 16:41 | 41.25314 | 28.70776 | 630 ft | 137 kts | 357° |
| 2026-05-04 16:41 | 41.27866 | 28.70705 | 332 ft | 68 kts | 359° |
| 2026-05-04 16:42 | 41.28371 | 28.70805 | 332 ft | 0 kts | 29° |
| 2026-05-04 16:44 | 41.28417 | 28.71173 | 331 ft | 19 kts | 178° |
| 2026-05-04 16:45 | 41.28026 | 28.71181 | 330 ft | 30 kts | 179° |
| 2026-05-04 16:46 | 41.27462 | 28.71194 | 329 ft | 24 kts | 179° |
| 2026-05-04 16:46 | 41.27072 | 28.71203 | 331 ft | 31 kts | 180° |
| 2026-05-04 16:47 | 41.26742 | 28.71212 | 333 ft | 17 kts | 169° |
| 2026-05-04 16:47 | 41.26698 | 28.71564 | 330 ft | 22 kts | 89° |
| 2026-05-04 16:48 | 41.26705 | 28.72051 | 333 ft | 0 kts | 89° |
| 2026-05-04 16:51 | 41.26704 | 28.72108 | 333 ft | 15 kts | 97° |
| 2026-05-04 16:51 | 41.26374 | 28.72179 | 332 ft | 27 kts | 180° |
| 2026-05-04 16:52 | 41.26028 | 28.72142 | 333 ft | 23 kts | 187° |
| 2026-05-04 16:52 | 41.25871 | 28.72113 | 332 ft | 22 kts | 188° |
| 2026-05-04 16:53 | 41.25519 | 28.72095 | 332 ft | 26 kts | 178° |
| 2026-05-04 16:53 | 41.25247 | 28.72558 | 331 ft | 34 kts | 89° |
| 2026-05-04 16:54 | 41.25251 | 28.72867 | 333 ft | 33 kts | 89° |
| 2026-05-04 16:55 | 41.25655 | 28.73251 | 333 ft | 33 kts | 359° |
| 2026-05-04 16:55 | 41.26084 | 28.73240 | 330 ft | 29 kts | 359° |
| 2026-05-04 16:56 | 41.26461 | 28.73231 | 330 ft | 25 kts | 359° |
| 2026-05-04 16:56 | 41.26804 | 28.73224 | 331 ft | 6 kts | 359° |
| 2026-05-04 16:57 | 41.26860 | 28.73261 | 330 ft | 15 kts | 61° |
| 2026-05-04 16:57 | 41.26873 | 28.73624 | 329 ft | 20 kts | 89° |
| 2026-05-04 16:58 | 41.26766 | 28.73875 | 329 ft | 4 kts | 180° |
| 2026-05-04 16:58 | 41.26742 | 28.73875 | 332 ft | 4 kts | 180° |
| 2026-05-04 16:59 | 41.26585 | 28.73878 | 332 ft | 17 kts | 179° |
| 2026-05-04 17:00 | 41.26423 | 28.74111 | 333 ft | 1 kts | 101° |
| 2026-05-04 17:00 | 41.26422 | 28.74118 | 329 ft | 0 kts | 101° |